Time;durP1;ratioP1;P1;durP2;ratioP2;P2;SDS_P1;SDS_P2;PMS_P1;PMS_P2;Temp;Humidity;BMP_temperature;BMP_pressure;BME280_temperature;BME280_humidity;BME280_pressure;Samples;Min_cycle;Max_cycle;Signal;HPM_P1;HPM_P2
2022/10/19 00:01:17;;;;;;;15.73;4.30;;;20.50;60.30;;;;;;6095385;29;20040;-78
2022/10/19 00:04:18;;;;;;;15.00;4.13;;;20.50;60.20;;;;;;6103877;29;20136;-77
2022/10/19 00:07:19;;;;;;;13.48;4.05;;;20.50;60.00;;;;;;6114793;29;20028;-77
2022/10/19 00:10:20;;;;;;;17.00;4.45;;;20.50;60.00;;;;;;6098402;29;20039;-78
2022/10/19 00:13:21;;;;;;;11.05;3.72;;;20.50;60.00;;;;;;6092460;29;20328;-78
2022/10/19 00:16:24;;;;;;;8.88;4.20;;;20.50;59.90;;;;;;6098988;29;20040;-78
2022/10/19 00:19:26;;;;;;;15.43;4.20;;;20.50;59.90;;;;;;6099318;29;20043;-77
2022/10/19 00:22:27;;;;;;;7.18;3.75;;;20.50;59.90;;;;;;6096614;29;20331;-78
2022/10/19 00:25:28;;;;;;;10.32;3.60;;;20.50;59.90;;;;;;6094283;29;20036;-77
2022/10/19 00:28:29;;;;;;;9.32;3.67;;;20.50;59.90;;;;;;6098327;29;20114;-78
2022/10/19 00:31:30;;;;;;;12.40;3.60;;;20.50;59.80;;;;;;6095758;29;20032;-78
2022/10/19 00:34:31;;;;;;;6.40;3.17;;;20.50;59.70;;;;;;6092372;29;20348;-78
2022/10/19 00:37:32;;;;;;;12.23;3.47;;;20.50;59.60;;;;;;6100178;29;20036;-78
2022/10/19 00:40:37;;;;;;;10.48;3.42;;;20.50;59.50;;;;;;6105484;29;20422;-78
2022/10/19 00:43:51;;;;;;;5.07;3.03;;;20.50;59.40;;;;;;6104271;29;20044;-78
2022/10/19 00:46:52;;;;;;;9.23;3.35;;;20.50;59.30;;;;;;6105496;29;20418;-77
2022/10/19 00:49:54;;;;;;;7.72;2.58;;;20.40;58.80;;;;;;6095483;29;20425;-78
2022/10/19 00:52:56;;;;;;;12.40;3.13;;;20.40;58.60;;;;;;6091211;29;20465;-78
2022/10/19 00:56:01;;;;;;;9.30;2.92;;;20.40;58.50;;;;;;6096222;29;20059;-76
2022/10/19 00:59:04;;;;;;;5.28;2.63;;;20.30;58.30;;;;;;6085930;29;20092;-77
2022/10/19 01:02:06;;;;;;;7.15;3.15;;;20.40;58.30;;;;;;6047348;29;20032;-77
2022/10/19 01:05:07;;;;;;;9.57;3.17;;;20.30;58.20;;;;;;6084193;29;20501;-77
2022/10/19 01:08:10;;;;;;;10.52;3.25;;;20.30;58.30;;;;;;6075853;29;20037;-78
2022/10/19 01:11:30;;;;;;;7.32;3.35;;;20.20;58.30;;;;;;6102467;29;20048;-76
2022/10/19 01:14:52;;;;;;;4.93;2.90;;;20.20;58.40;;;;;;6094075;29;20121;-77
2022/10/19 01:17:56;;;;;;;10.55;4.18;;;20.10;58.50;;;;;;6101498;29;20127;-77
2022/10/19 01:21:27;;;;;;;8.43;4.03;;;20.10;58.60;;;;;;6098555;29;20047;-77
2022/10/19 01:24:51;;;;;;;6.45;3.35;;;20.10;58.90;;;;;;6085767;29;20044;-77
2022/10/19 01:27:59;;;;;;;16.45;4.00;;;20.10;59.30;;;;;;6086709;29;20061;-78
2022/10/19 01:31:26;;;;;;;13.48;3.60;;;20.10;59.60;;;;;;6092559;29;20036;-78
2022/10/19 01:34:37;;;;;;;6.93;3.50;;;20.00;59.90;;;;;;6006912;29;20128;-77
2022/10/19 01:37:48;;;;;;;18.80;4.40;;;19.90;60.30;;;;;;6018687;29;20056;-76
2022/10/19 01:40:57;;;;;;;10.15;4.47;;;19.80;60.60;;;;;;6004163;29;20056;-78
2022/10/19 01:44:21;;;;;;;8.80;3.78;;;19.80;60.80;;;;;;6021821;29;20061;-79
2022/10/19 01:47:29;;;;;;;8.75;4.07;;;19.80;61.00;;;;;;6023332;29;20072;-77
2022/10/19 01:50:43;;;;;;;11.48;3.97;;;19.70;61.20;;;;;;6025835;29;20048;-77
2022/10/19 01:53:50;;;;;;;7.93;3.80;;;19.70;61.60;;;;;;6027261;29;20041;-76
2022/10/19 01:56:53;;;;;;;19.00;4.85;;;19.70;61.90;;;;;;6023474;29;20142;-76
2022/10/19 01:59:54;;;;;;;9.20;4.05;;;19.60;62.10;;;;;;6023913;29;20046;-77
2022/10/19 02:02:56;;;;;;;12.20;3.60;;;19.60;62.10;;;;;;6021825;29;20037;-77
2022/10/19 02:05:58;;;;;;;9.23;3.58;;;19.60;62.30;;;;;;6031564;29;20030;-78
2022/10/19 02:08:59;;;;;;;5.80;3.22;;;19.50;62.30;;;;;;6015328;29;20113;-77
2022/10/19 02:12:05;;;;;;;17.80;3.55;;;19.50;62.40;;;;;;6094297;29;20034;-77
2022/10/19 02:15:13;;;;;;;10.93;3.88;;;19.50;62.70;;;;;;6109175;29;20418;-77
2022/10/19 02:18:20;;;;;;;7.95;3.50;;;19.40;62.80;;;;;;6095055;29;20644;-77
2022/10/19 02:21:21;;;;;;;16.13;3.72;;;19.30;63.00;;;;;;6113033;29;20040;-77
2022/10/19 02:24:22;;;;;;;8.45;3.60;;;19.30;63.20;;;;;;6094878;29;20409;-78
2022/10/19 02:27:23;;;;;;;8.00;3.88;;;19.20;63.30;;;;;;6093168;29;20044;-79
2022/10/19 02:30:24;;;;;;;9.15;3.25;;;19.20;63.40;;;;;;6096393;29;20053;-78
2022/10/19 02:33:27;;;;;;;13.85;4.95;;;19.20;63.60;;;;;;6102087;29;20517;-78
2022/10/19 02:36:28;;;;;;;13.48;3.55;;;19.20;63.80;;;;;;6113041;29;20028;-77
2022/10/19 02:39:29;;;;;;;6.70;3.28;;;19.10;64.00;;;;;;6099399;29;20111;-78
2022/10/19 02:43:10;;;;;;;11.93;3.72;;;19.00;64.30;;;;;;6090672;29;20119;-78
2022/10/19 02:46:20;;;;;;;13.05;3.65;;;19.00;64.80;;;;;;6100245;29;20049;-77
2022/10/19 02:49:21;;;;;;;7.90;3.85;;;18.90;64.90;;;;;;6089985;29;20032;-77
2022/10/19 02:52:22;;;;;;;10.95;3.65;;;18.90;65.00;;;;;;6096797;29;20036;-78
2022/10/19 02:55:23;;;;;;;6.82;3.58;;;18.90;65.30;;;;;;6094719;29;20419;-77
2022/10/19 02:58:24;;;;;;;10.27;3.90;;;18.90;65.30;;;;;;6096509;29;20035;-77
2022/10/19 03:01:25;;;;;;;7.22;3.65;;;18.90;65.20;;;;;;6097619;29;20040;-77
2022/10/19 03:04:26;;;;;;;8.02;3.58;;;18.80;65.10;;;;;;6100586;29;20043;-77
2022/10/19 03:07:28;;;;;;;8.93;4.07;;;18.80;65.10;;;;;;6092424;29;20524;-77
2022/10/19 03:10:29;;;;;;;7.75;4.15;;;18.80;65.20;;;;;;6096003;29;20044;-77
2022/10/19 03:13:30;;;;;;;22.42;4.60;;;18.70;65.30;;;;;;6097393;29;20521;-77
2022/10/19 03:16:32;;;;;;;12.40;4.05;;;18.70;65.50;;;;;;6098363;29;20382;-77
2022/10/19 03:19:34;;;;;;;9.30;4.00;;;18.70;65.70;;;;;;6098918;29;20062;-78
2022/10/19 03:22:35;;;;;;;15.80;4.35;;;18.60;65.80;;;;;;6096121;29;20045;-77
2022/10/19 03:25:36;;;;;;;8.90;3.85;;;18.60;66.80;;;;;;6098587;29;20036;-78
2022/10/19 03:28:37;;;;;;;14.15;4.50;;;18.60;66.20;;;;;;6100965;29;20059;-78
2022/10/19 03:31:38;;;;;;;19.20;4.70;;;18.60;66.30;;;;;;6097849;29;20032;-77
2022/10/19 03:34:39;;;;;;;9.90;4.07;;;18.50;66.40;;;;;;6093814;29;20477;-78
2022/10/19 03:37:41;;;;;;;19.15;4.47;;;18.50;66.40;;;;;;6100860;29;20111;-78
2022/10/19 03:40:42;;;;;;;10.65;4.28;;;18.50;66.40;;;;;;6100748;29;20039;-78
2022/10/19 03:43:42;;;;;;;8.13;4.05;;;18.50;66.40;;;;;;6101215;29;20052;-77
2022/10/19 03:46:43;;;;;;;8.27;3.63;;;18.50;66.50;;;;;;6096118;29;20059;-78
2022/10/19 03:49:45;;;;;;;8.35;4.20;;;18.50;66.40;;;;;;6108340;29;20124;-78
2022/10/19 03:52:48;;;;;;;8.27;4.03;;;18.50;66.40;;;;;;6090599;29;20369;-78
2022/10/19 03:55:49;;;;;;;8.07;3.63;;;18.50;66.20;;;;;;6083710;29;20032;-77
2022/10/19 03:58:51;;;;;;;9.65;3.75;;;18.50;66.10;;;;;;6101896;29;20362;-77
2022/10/19 04:01:52;;;;;;;7.65;3.58;;;18.40;66.10;;;;;;6095806;29;20642;-78
2022/10/19 04:04:53;;;;;;;7.72;4.07;;;18.50;66.20;;;;;;6097921;29;20044;-77
2022/10/19 04:07:54;;;;;;;14.65;4.38;;;18.40;66.20;;;;;;6089938;29;20032;-78
2022/10/19 04:11:03;;;;;;;10.68;4.05;;;18.40;66.40;;;;;;6093694;29;20036;-77
2022/10/19 04:14:04;;;;;;;12.85;3.45;;;18.40;66.30;;;;;;6097425;29;20462;-78
2022/10/19 04:17:05;;;;;;;6.55;3.72;;;18.40;66.20;;;;;;6092662;29;20055;-78
2022/10/19 04:20:06;;;;;;;11.38;3.92;;;18.30;66.30;;;;;;6095762;29;20167;-78
2022/10/19 04:23:07;;;;;;;7.68;4.10;;;18.30;66.40;;;;;;6079492;29;20036;-78
2022/10/19 04:26:09;;;;;;;12.57;4.65;;;18.20;66.50;;;;;;6095120;29;20350;-78
2022/10/19 04:29:10;;;;;;;15.80;5.50;;;18.20;66.60;;;;;;6106685;29;20454;-77
2022/10/19 04:32:11;;;;;;;11.60;4.68;;;18.20;66.60;;;;;;6092640;29;20390;-79
2022/10/19 04:35:11;;;;;;;11.00;3.88;;;18.20;66.80;;;;;;6084657;29;20127;-78
2022/10/19 04:38:12;;;;;;;12.48;4.65;;;18.10;66.70;;;;;;6098018;29;20052;-77
2022/10/19 04:41:15;;;;;;;14.75;4.35;;;18.10;66.90;;;;;;6101435;29;20099;-78
2022/10/19 04:44:16;;;;;;;13.23;4.28;;;18.10;67.00;;;;;;6095407;29;20028;-77
2022/10/19 04:47:17;;;;;;;6.85;3.78;;;18.10;67.10;;;;;;6096710;29;20060;-78
2022/10/19 04:50:18;;;;;;;11.00;4.10;;;18.00;67.10;;;;;;6096850;29;20044;-77
2022/10/19 04:53:19;;;;;;;13.52;3.58;;;18.00;67.20;;;;;;6095066;29;20111;-77
2022/10/19 04:56:22;;;;;;;8.13;3.70;;;18.00;67.30;;;;;;6088219;29;20068;-78
2022/10/19 04:59:24;;;;;;;7.32;3.88;;;17.90;67.40;;;;;;6101940;29;20107;-79
2022/10/19 05:02:25;;;;;;;10.90;4.22;;;17.90;67.50;;;;;;6080985;29;20036;-77
2022/10/19 05:05:26;;;;;;;6.68;3.38;;;17.90;67.70;;;;;;6092162;29;20115;-77
2022/10/19 05:08:27;;;;;;;13.52;4.45;;;17.90;67.70;;;;;;6097103;29;20492;-77
2022/10/19 05:11:28;;;;;;;17.08;4.43;;;17.90;67.60;;;;;;6097609;29;20045;-77
2022/10/19 05:14:32;;;;;;;14.40;4.03;;;18.00;67.60;;;;;;6081913;29;20077;-76
2022/10/19 05:17:33;;;;;;;11.00;4.15;;;18.00;67.40;;;;;;6094073;29;20048;-79
2022/10/19 05:20:34;;;;;;;8.75;3.88;;;18.10;67.30;;;;;;6094698;29;20512;-77
2022/10/19 05:23:36;;;;;;;11.27;3.78;;;18.10;67.10;;;;;;6082868;29;20063;-77
2022/10/19 05:26:36;;;;;;;9.23;3.80;;;18.10;67.00;;;;;;6091405;29;20408;-77
2022/10/19 05:29:37;;;;;;;12.68;4.05;;;18.10;66.90;;;;;;6094579;29;20102;-77
2022/10/19 05:32:38;;;;;;;12.18;3.92;;;18.10;66.90;;;;;;6104862;29;20040;-78
2022/10/19 05:35:39;;;;;;;6.10;3.22;;;18.10;66.80;;;;;;6096032;29;20048;-78
2022/10/19 05:38:40;;;;;;;8.43;3.83;;;18.00;66.70;;;;;;6096183;29;20107;-78
2022/10/19 05:41:45;;;;;;;14.60;4.30;;;18.00;66.70;;;;;;6103702;29;20035;-78
2022/10/19 05:44:46;;;;;;;13.60;4.20;;;18.00;66.70;;;;;;6124185;29;20076;-77
2022/10/19 05:47:47;;;;;;;7.20;3.78;;;18.00;67.50;;;;;;6083277;29;20068;-77
2022/10/19 05:50:54;;;;;;;12.38;3.72;;;17.90;66.70;;;;;;6120296;29;20070;-77
2022/10/19 05:53:55;;;;;;;16.73;4.30;;;17.90;66.80;;;;;;6109559;29;20046;-78
2022/10/19 05:56:57;;;;;;;16.23;4.28;;;17.90;66.80;;;;;;6101022;29;20103;-77
2022/10/19 05:59:58;;;;;;;18.27;4.57;;;17.90;66.80;;;;;;6095961;29;20036;-76
2022/10/19 06:02:59;;;;;;;43.67;5.88;;;18.00;67.00;;;;;;6098509;29;20454;-78
2022/10/19 06:06:03;;;;;;;20.45;4.25;;;17.90;67.00;;;;;;6094877;29;20080;-78
2022/10/19 06:09:04;;;;;;;17.70;4.45;;;17.90;67.10;;;;;;6102166;29;20025;-78
2022/10/19 06:12:05;;;;;;;10.55;4.13;;;17.90;67.10;;;;;;6105771;29;20047;-77
2022/10/19 06:15:06;;;;;;;16.45;4.57;;;18.00;67.10;;;;;;6093858;29;20497;-77
2022/10/19 06:18:09;;;;;;;12.07;4.85;;;18.00;67.10;;;;;;6086259;29;20036;-76
2022/10/19 06:21:12;;;;;;;13.38;4.65;;;18.00;66.90;;;;;;6119507;29;20032;-79
2022/10/19 06:24:13;;;;;;;11.45;5.10;;;18.00;66.80;;;;;;6093342;29;20411;-78
2022/10/19 06:27:14;;;;;;;14.35;4.72;;;18.10;66.80;;;;;;6096708;29;20028;-77
2022/10/19 06:30:15;;;;;;;7.03;3.55;;;18.10;66.60;;;;;;6095498;29;20035;-77
2022/10/19 06:33:16;;;;;;;10.70;3.65;;;18.10;66.40;;;;;;6109753;29;20036;-76
2022/10/19 06:36:20;;;;;;;13.05;3.33;;;18.20;66.20;;;;;;6100016;29;20045;-76
2022/10/19 06:39:21;;;;;;;11.85;4.22;;;18.20;65.90;;;;;;6100422;29;20024;-78
2022/10/19 06:42:22;;;;;;;15.15;3.40;;;18.30;65.60;;;;;;6096395;29;20067;-78
2022/10/19 06:45:23;;;;;;;14.38;3.80;;;18.30;64.90;;;;;;6097316;29;20047;-76
2022/10/19 06:48:24;;;;;;;11.25;3.53;;;18.30;64.60;;;;;;6085014;29;20028;-77
2022/10/19 06:51:26;;;;;;;13.98;5.03;;;18.30;64.10;;;;;;6089774;29;20087;-77
2022/10/19 06:54:27;;;;;;;19.30;4.55;;;18.40;64.20;;;;;;6098600;29;20099;-78
2022/10/19 06:57:28;;;;;;;12.90;4.25;;;18.40;64.30;;;;;;6096535;29;20029;-76
2022/10/19 07:00:29;;;;;;;12.80;4.97;;;18.40;64.50;;;;;;6108419;29;20071;-77
2022/10/19 07:03:30;;;;;;;18.60;5.10;;;18.40;64.60;;;;;;6094665;29;20028;-78
2022/10/19 07:06:31;;;;;;;19.10;4.72;;;18.40;64.70;;;;;;6089289;29;20078;-77
2022/10/19 07:09:32;;;;;;;12.15;4.43;;;18.40;64.90;;;;;;6090467;29;20032;-77
2022/10/19 07:12:34;;;;;;;12.32;4.97;;;18.40;65.00;;;;;;6097872;29;20403;-78
2022/10/19 07:15:34;;;;;;;17.00;5.28;;;18.40;65.00;;;;;;6072752;29;20036;-78
2022/10/19 07:18:36;;;;;;;14.38;4.57;;;18.50;65.10;;;;;;6088066;29;20122;-77
2022/10/19 07:21:40;;;;;;;12.45;4.95;;;18.50;65.10;;;;;;6102433;29;20492;-79
2022/10/19 07:24:41;;;;;;;23.63;4.75;;;18.60;65.00;;;;;;6092576;29;20456;-77
2022/10/19 07:27:42;;;;;;;15.18;4.43;;;18.60;64.80;;;;;;6099462;29;20115;-78
2022/10/19 07:30:42;;;;;;;18.88;4.85;;;18.60;64.80;;;;;;6081685;29;20028;-77
2022/10/19 07:33:44;;;;;;;13.27;4.55;;;18.60;64.70;;;;;;6090348;29;20041;-79
2022/10/19 07:36:46;;;;;;;10.32;4.15;;;18.60;64.80;;;;;;6100472;29;20106;-77
2022/10/19 07:39:47;;;;;;;14.82;4.43;;;18.70;64.80;;;;;;6094123;29;20140;-77
2022/10/19 07:42:48;;;;;;;15.60;5.30;;;18.70;64.70;;;;;;6093574;29;20354;-77
2022/10/19 07:45:49;;;;;;;26.52;4.88;;;18.80;64.60;;;;;;6112180;29;20032;-77
2022/10/19 07:48:51;;;;;;;9.98;4.72;;;18.80;64.50;;;;;;6080124;29;20103;-77
2022/10/19 07:51:53;;;;;;;19.35;4.63;;;18.90;64.40;;;;;;6096295;29;20095;-78
2022/10/19 07:54:55;;;;;;;18.42;5.55;;;18.90;64.40;;;;;;6089185;29;20103;-78
2022/10/19 07:58:00;;;;;;;19.67;5.30;;;19.00;64.20;;;;;;6101901;29;20454;-77
2022/10/19 08:01:16;;;;;;;30.85;5.35;;;19.10;64.00;;;;;;6099022;29;20402;-78
2022/10/19 08:04:17;;;;;;;24.45;5.00;;;19.20;63.80;;;;;;6097831;29;20028;-76
2022/10/19 08:07:18;;;;;;;14.27;4.10;;;19.30;63.50;;;;;;6092586;29;20116;-79
2022/10/19 08:10:18;;;;;;;15.55;4.45;;;19.40;63.20;;;;;;6098876;29;20052;-78
2022/10/19 08:13:19;;;;;;;17.83;5.05;;;19.40;62.90;;;;;;6098539;29;20135;-78
2022/10/19 08:16:33;;;;;;;15.80;6.32;;;19.40;62.80;;;;;;6088620;29;20028;-79
2022/10/19 08:19:34;;;;;;;17.30;7.97;;;19.50;62.80;;;;;;6105824;29;20037;-78
2022/10/19 08:22:34;;;;;;;14.30;6.85;;;19.60;62.50;;;;;;6094927;29;20024;-77
2022/10/19 08:25:36;;;;;;;24.70;8.10;;;19.70;62.10;;;;;;6093933;29;20648;-78
2022/10/19 08:28:37;;;;;;;21.55;8.00;;;19.80;62.00;;;;;;6091621;29;20382;-78
2022/10/19 08:31:39;;;;;;;26.35;8.13;;;19.90;61.60;;;;;;6074877;29;20036;-77
2022/10/19 08:34:40;;;;;;;20.33;7.80;;;20.00;61.40;;;;;;6094156;29;20130;-78
2022/10/19 08:37:41;;;;;;;21.02;6.20;;;20.00;61.30;;;;;;6099060;29;20505;-78
2022/10/19 08:40:44;;;;;;;18.80;5.45;;;20.20;61.20;;;;;;6082380;29;20043;-78
2022/10/19 08:44:29;;;;;;;16.67;4.82;;;20.20;60.80;;;;;;6097065;29;20044;-78
2022/10/19 08:47:52;;;;;;;20.33;7.10;;;20.30;60.60;;;;;;6086668;29;20028;-78
2022/10/19 08:50:54;;;;;;;19.73;7.70;;;20.40;60.20;;;;;;6086401;29;20462;-78
2022/10/19 08:53:58;;;;;;;12.35;5.28;;;20.50;59.90;;;;;;6086191;29;20072;-77
2022/10/19 08:57:25;;;;;;;7.35;3.60;;;20.60;59.80;;;;;;6098210;29;20091;-77
2022/10/19 09:01:06;;;;;;;12.23;3.47;;;20.70;59.60;;;;;;6091015;29;20462;-77
2022/10/19 09:04:16;;;;;;;11.27;4.18;;;20.80;59.20;;;;;;6061524;29;20048;-77
2022/10/19 09:07:44;;;;;;;17.42;4.10;;;20.90;58.60;;;;;;6095576;29;20048;-78
2022/10/19 09:10:49;;;;;;;20.40;6.80;;;21.00;58.30;;;;;;6092149;29;20075;-76
2022/10/19 09:14:02;;;;;;;30.35;12.27;;;21.00;58.30;;;;;;6109796;29;20035;-79
2022/10/19 09:17:13;;;;;;;17.83;6.53;;;21.10;58.30;;;;;;6099030;29;20044;-78
2022/10/19 09:20:37;;;;;;;21.65;6.40;;;21.20;58.10;;;;;;6101840;29;20028;-77
2022/10/19 09:23:40;;;;;;;9.77;3.83;;;21.40;57.90;;;;;;6094289;29;20489;-77
2022/10/19 09:26:50;;;;;;;9.35;3.40;;;21.50;57.30;;;;;;6092482;29;20509;-76
2022/10/19 09:29:57;;;;;;;19.25;3.92;;;21.50;56.70;;;;;;6096794;29;20048;-77
2022/10/19 09:32:59;;;;;;;43.05;11.95;;;21.50;56.30;;;;;;6112223;29;20040;-77
2022/10/19 09:36:03;;;;;;;35.10;11.75;;;21.60;55.90;;;;;;6098319;29;20040;-77
2022/10/19 09:39:04;;;;;;;22.98;9.88;;;21.60;55.90;;;;;;6101092;29;20373;-78
2022/10/19 09:42:24;;;;;;;33.38;9.35;;;21.70;55.60;;;;;;6094569;29;20052;-78
2022/10/19 09:45:32;;;;;;;15.05;5.45;;;21.70;55.30;;;;;;6090939;29;20064;-78
2022/10/19 09:48:43;;;;;;;10.25;4.05;;;21.80;54.60;;;;;;6099016;29;20036;-78
2022/10/19 09:51:50;;;;;;;8.27;3.38;;;21.90;54.50;;;;;;6101515;29;20051;-79
2022/10/19 09:55:04;;;;;;;13.37;3.73;;;22.00;54.20;;;;;;6102454;29;20044;-78
2022/10/19 09:58:14;;;;;;;26.83;7.38;;;22.00;54.00;;;;;;6099216;29;20063;-78
2022/10/19 10:01:38;;;;;;;26.25;8.32;;;22.10;53.70;;;;;;6085556;29;20044;-79
2022/10/19 10:04:39;;;;;;;24.90;8.60;;;22.30;53.40;;;;;;6106776;29;20407;-78
2022/10/19 10:07:41;;;;;;;24.52;9.43;;;22.60;52.70;;;;;;6094061;29;20048;-79
2022/10/19 10:10:58;;;;;;;26.33;10.88;;;22.80;52.00;;;;;;6108506;29;20319;-78
2022/10/19 10:14:19;;;;;;;31.45;9.23;;;23.10;51.80;;;;;;6101484;29;20072;-78
2022/10/19 10:17:24;;;;;;;24.98;7.15;;;23.50;51.30;;;;;;6106497;29;20447;-78
2022/10/19 10:20:31;;;;;;;18.23;5.15;;;23.80;50.70;;;;;;6099546;29;20058;-78
2022/10/19 10:23:35;;;;;;;16.75;3.40;;;24.10;49.80;;;;;;6093703;29;20044;-78
2022/10/19 10:26:41;;;;;;;17.00;4.03;;;24.40;49.20;;;;;;6082407;29;20087;-79
2022/10/19 10:29:54;;;;;;;42.63;15.07;;;24.60;48.70;;;;;;6100527;29;20039;-78
2022/10/19 10:32:55;;;;;;;24.30;5.05;;;24.90;48.30;;;;;;6101886;29;20044;-78
2022/10/19 10:36:06;;;;;;;30.05;3.65;;;25.20;47.80;;;;;;6094952;29;20575;-79
2022/10/19 10:39:14;;;;;;;24.30;7.40;;;25.40;47.40;;;;;;6095216;29;20591;-78
2022/10/19 10:42:20;;;;;;;13.23;3.63;;;25.70;46.80;;;;;;6094244;29;20423;-78
2022/10/19 10:45:48;;;;;;;12.35;3.33;;;25.90;45.80;;;;;;6093106;29;20083;-78
2022/10/19 10:48:55;;;;;;;19.63;5.37;;;26.10;45.00;;;;;;6009546;29;20359;-78
2022/10/19 10:52:00;;;;;;;10.10;3.20;;;26.20;44.70;;;;;;6027832;29;20448;-78
2022/10/19 10:55:16;;;;;;;21.92;5.15;;;26.40;44.50;;;;;;6006370;29;20808;-78
2022/10/19 10:58:37;;;;;;;11.63;2.92;;;26.60;43.90;;;;;;6025552;29;20041;-79
2022/10/19 11:01:52;;;;;;;8.73;3.15;;;26.90;43.30;;;;;;6010118;29;20507;-79
2022/10/19 11:05:03;;;;;;;23.58;3.33;;;27.20;42.40;;;;;;6021667;29;20105;-77
2022/10/19 11:08:11;;;;;;;22.23;3.65;;;27.50;42.30;;;;;;6014748;29;20098;-80
2022/10/19 11:11:26;;;;;;;18.92;3.70;;;27.90;41.60;;;;;;6020627;29;20050;-80
2022/10/19 11:14:52;;;;;;;10.32;2.50;;;28.20;40.60;;;;;;6017965;29;20037;-78
2022/10/19 11:18:02;;;;;;;20.70;2.83;;;28.40;39.90;;;;;;6006757;29;20061;-78
2022/10/19 11:21:19;;;;;;;17.85;2.95;;;28.50;39.10;;;;;;6024347;29;20051;-79
2022/10/19 11:24:41;;;;;;;12.32;3.33;;;28.40;38.90;;;;;;6033906;29;20099;-79
2022/10/19 11:28:24;;;;;;;13.93;2.78;;;28.40;38.60;;;;;;6091076;29;20123;-79
2022/10/19 11:31:43;;;;;;;11.90;2.85;;;28.50;37.90;;;;;;5968055;29;20437;-79
2022/10/19 11:35:08;;;;;;;11.85;2.10;;;28.70;37.20;;;;;;5972735;29;20046;-78
2022/10/19 11:38:32;;;;;;;10.57;2.95;;;28.80;36.50;;;;;;5967777;29;20183;-80
2022/10/19 11:42:00;;;;;;;11.98;2.85;;;28.80;36.60;;;;;;5968845;29;20042;-80
2022/10/19 11:45:19;;;;;;;19.13;4.30;;;29.00;36.60;;;;;;5954896;29;20038;-78
2022/10/19 11:48:47;;;;;;;12.98;3.20;;;29.20;36.50;;;;;;5982490;29;20509;-79
2022/10/19 11:52:00;;;;;;;16.30;4.45;;;29.40;36.80;;;;;;5977792;29;20074;-79
2022/10/19 11:55:19;;;;;;;17.90;5.05;;;29.40;37.10;;;;;;5978395;29;20129;-80
2022/10/19 11:58:36;;;;;;;18.33;3.63;;;29.60;37.00;;;;;;5977346;29;20037;-78
2022/10/19 12:02:03;;;;;;;12.18;3.65;;;30.00;36.70;;;;;;5976665;29;20043;-78
2022/10/19 12:05:39;;;;;;;9.60;2.70;;;30.60;36.30;;;;;;5976468;29;20107;-79
2022/10/19 12:09:06;;;;;;;24.77;3.55;;;31.30;35.40;;;;;;6042934;29;20036;-79
2022/10/19 12:12:29;;;;;;;11.30;3.50;;;32.00;34.30;;;;;;6084985;29;20047;-79
2022/10/19 12:15:45;;;;;;;11.15;3.17;;;32.60;33.20;;;;;;6087989;29;20027;-79
2022/10/19 12:18:53;;;;;;;19.73;3.38;;;33.00;33.00;;;;;;6079722;29;20036;-81
2022/10/19 12:22:01;;;;;;;14.25;2.88;;;33.40;32.40;;;;;;6100196;29;20134;-79
2022/10/19 12:25:03;;;;;;;20.55;4.07;;;33.50;31.80;;;;;;6109996;29;20054;-78
2022/10/19 12:28:04;;;;;;;15.63;3.85;;;33.40;32.10;;;;;;6097890;29;20358;-79
2022/10/19 12:31:05;;;;;;;13.07;3.35;;;33.30;32.10;;;;;;6094476;29;20040;-79
2022/10/19 12:34:30;;;;;;;12.73;3.65;;;32.90;32.20;;;;;;6104179;29;20438;-78
2022/10/19 12:37:38;;;;;;;16.05;3.03;;;32.30;33.10;;;;;;6096480;29;20410;-79
2022/10/19 12:40:48;;;;;;;11.07;2.55;;;31.80;33.70;;;;;;6096391;29;20040;-78
2022/10/19 12:44:05;;;;;;;10.82;3.28;;;31.40;34.30;;;;;;6097622;29;20040;-78
2022/10/19 12:47:09;;;;;;;11.82;2.97;;;31.00;34.80;;;;;;6090909;29;20450;-79
2022/10/19 12:50:10;;;;;;;7.47;2.80;;;30.60;35.20;;;;;;6089941;29;20051;-79
2022/10/19 12:53:29;;;;;;;18.65;3.08;;;30.30;35.60;;;;;;6093984;29;20064;-79
2022/10/19 12:56:30;;;;;;;11.95;2.78;;;30.00;35.80;;;;;;6096356;29;20111;-79
2022/10/19 12:59:34;;;;;;;12.18;2.83;;;29.80;35.90;;;;;;6083203;29;20032;-79
2022/10/19 13:02:37;;;;;;;11.15;2.25;;;29.50;36.00;;;;;;6087017;29;20115;-79
2022/10/19 13:05:38;;;;;;;15.82;2.30;;;29.30;36.10;;;;;;6094309;29;20068;-79
2022/10/19 13:08:45;;;;;;;10.27;2.42;;;29.00;36.20;;;;;;6089983;29;20040;-78
2022/10/19 13:12:13;;;;;;;14.77;3.97;;;28.90;36.40;;;;;;6092827;29;20060;-79
2022/10/19 13:15:33;;;;;;;16.50;2.67;;;28.70;36.60;;;;;;6089572;29;20055;-78
2022/10/19 13:19:12;;;;;;;17.65;2.50;;;28.60;36.60;;;;;;6085790;29;20047;-78
2022/10/19 13:22:28;;;;;;;15.20;2.72;;;28.50;36.80;;;;;;6045140;29;20070;-78
2022/10/19 13:25:32;;;;;;;12.48;2.92;;;28.50;37.10;;;;;;6015791;29;20123;-78
2022/10/19 13:28:37;;;;;;;13.85;3.63;;;28.50;37.20;;;;;;6033438;29;20045;-78
2022/10/19 13:31:38;;;;;;;10.68;3.17;;;28.40;37.40;;;;;;6031316;29;20048;-79
2022/10/19 13:34:41;;;;;;;17.05;3.15;;;28.40;37.60;;;;;;6031526;29;20050;-78
2022/10/19 13:37:42;;;;;;;8.48;2.80;;;28.30;37.80;;;;;;6005669;29;20049;-78
2022/10/19 13:40:49;;;;;;;18.35;3.00;;;28.10;37.90;;;;;;6031480;29;20053;-78
2022/10/19 13:44:05;;;;;;;18.25;3.08;;;28.00;38.10;;;;;;6032132;29;20037;-78
2022/10/19 13:47:15;;;;;;;7.32;2.30;;;28.00;38.30;;;;;;6035067;29;20463;-78
2022/10/19 13:50:20;;;;;;;10.07;2.90;;;27.90;38.60;;;;;;6032410;29;20025;-77
2022/10/19 13:53:26;;;;;;;12.63;2.13;;;27.90;38.90;;;;;;6029012;29;20106;-78
2022/10/19 13:56:47;;;;;;;17.58;2.83;;;27.80;38.70;;;;;;6087765;29;20454;-78
2022/10/19 13:59:54;;;;;;;17.73;2.95;;;27.80;38.80;;;;;;6097473;29;20044;-79
2022/10/19 14:03:17;;;;;;;11.38;2.67;;;27.70;39.30;;;;;;6103426;29;20035;-78
2022/10/19 14:06:30;;;;;;;12.48;2.33;;;27.70;38.70;;;;;;6106963;29;20079;-79
2022/10/19 14:09:57;;;;;;;14.05;2.55;;;27.50;38.80;;;;;;6080623;29;20465;-78
2022/10/19 14:12:59;;;;;;;13.70;2.88;;;27.40;39.10;;;;;;6094901;29;20028;-78
2022/10/19 14:16:01;;;;;;;12.35;3.17;;;27.40;39.30;;;;;;6088571;29;20056;-78
2022/10/19 14:19:11;;;;;;;12.95;3.75;;;27.20;39.50;;;;;;6088001;29;20468;-79
2022/10/19 14:22:28;;;;;;;14.80;3.70;;;27.10;39.80;;;;;;6075634;29;20028;-78
2022/10/19 14:25:31;;;;;;;18.83;4.47;;;27.00;40.10;;;;;;6097519;29;20119;-78
2022/10/19 14:28:32;;;;;;;19.25;3.83;;;27.00;40.20;;;;;;6098745;29;20036;-77
2022/10/19 14:31:36;;;;;;;9.65;3.22;;;27.00;40.30;;;;;;6084023;29;20080;-77
2022/10/19 14:34:45;;;;;;;15.10;3.58;;;27.00;40.30;;;;;;6097323;29;20091;-78
2022/10/19 14:37:46;;;;;;;12.82;3.20;;;27.10;40.30;;;;;;6078544;29;20054;-77
2022/10/19 14:40:47;;;;;;;10.40;3.75;;;27.20;40.20;;;;;;6077667;29;20024;-79
2022/10/19 14:43:48;;;;;;;20.95;2.75;;;27.20;40.20;;;;;;6094841;29;20047;-78
2022/10/19 14:46:48;;;;;;;20.23;3.15;;;27.20;40.20;;;;;;6097076;29;20051;-78
2022/10/19 14:49:50;;;;;;;11.80;2.40;;;27.20;40.20;;;;;;6101464;29;20457;-80
2022/10/19 14:53:00;;;;;;;17.52;3.25;;;27.10;40.20;;;;;;6093812;29;20032;-77
2022/10/19 14:56:06;;;;;;;13.55;2.90;;;27.10;40.30;;;;;;6080079;29;20419;-78
2022/10/19 14:59:14;;;;;;;20.35;3.05;;;27.10;40.50;;;;;;6104484;29;20087;-78
2022/10/19 15:02:17;;;;;;;12.32;3.88;;;27.00;40.90;;;;;;6096452;29;20119;-78
2022/10/19 15:05:22;;;;;;;8.75;3.30;;;26.90;41.30;;;;;;6090519;29;20032;-80
2022/10/19 15:08:30;;;;;;;12.93;2.95;;;26.80;41.90;;;;;;6091214;29;20107;-78
2022/10/19 15:11:39;;;;;;;12.55;2.75;;;26.80;42.40;;;;;;6094638;29;20628;-78
2022/10/19 15:14:41;;;;;;;14.25;2.70;;;26.70;43.00;;;;;;6096133;29;20040;-78
2022/10/19 15:17:52;;;;;;;9.70;3.20;;;26.70;43.30;;;;;;6090110;29;20035;-78
2022/10/19 15:21:10;;;;;;;15.90;3.10;;;26.70;43.60;;;;;;6101118;29;20043;-78
2022/10/19 15:24:23;;;;;;;13.05;3.00;;;26.60;43.90;;;;;;6093756;29;20047;-78
2022/10/19 15:27:33;;;;;;;15.63;2.85;;;26.50;44.00;;;;;;6096358;29;20049;-77
2022/10/19 15:30:34;;;;;;;12.10;2.42;;;26.50;44.20;;;;;;6097377;29;20103;-77
2022/10/19 15:33:38;;;;;;;11.52;3.00;;;26.40;44.40;;;;;;6095125;29;20040;-77
2022/10/19 15:36:56;;;;;;;12.30;2.72;;;26.40;44.70;;;;;;6092207;29;20043;-77
2022/10/19 15:39:57;;;;;;;11.43;3.30;;;26.30;45.10;;;;;;6092954;29;20343;-77
2022/10/19 15:43:00;;;;;;;8.13;2.80;;;26.20;45.30;;;;;;6092142;29;20052;-77
2022/10/19 15:46:24;;;;;;;13.05;3.38;;;26.20;45.60;;;;;;6088976;29;20111;-80
2022/10/19 15:49:40;;;;;;;14.48;3.50;;;26.10;45.90;;;;;;6077813;29;20040;-79
2022/10/19 15:52:40;;;;;;;12.15;3.03;;;26.00;45.90;;;;;;6092457;29;20036;-78
2022/10/19 15:55:41;;;;;;;11.43;3.20;;;25.90;46.20;;;;;;6106708;29;20131;-79
2022/10/19 15:58:44;;;;;;;19.38;3.80;;;25.90;46.40;;;;;;6082385;29;20341;-79
2022/10/19 16:01:47;;;;;;;18.58;3.88;;;25.80;46.50;;;;;;6096494;29;20043;-79